createdAt,value
2022-11-25T00:00:41.744Z,4.30
2022-11-25T00:03:11.573Z,4.00
2022-11-25T00:05:41.498Z,4.27
2022-11-25T00:08:14.208Z,4.27
2022-11-25T00:10:44.030Z,3.40
2022-11-25T00:13:13.870Z,3.97
2022-11-25T00:15:44.102Z,3.70
2022-11-25T00:18:13.906Z,3.83
2022-11-25T00:20:43.706Z,3.93
2022-11-25T00:23:16.130Z,3.93
2022-11-25T00:25:45.941Z,3.90
2022-11-25T00:28:15.768Z,3.70
2022-11-25T00:30:45.603Z,3.83
2022-11-25T00:33:15.437Z,4.30
2022-11-25T00:35:45.259Z,4.10
2022-11-25T00:38:17.718Z,3.77
2022-11-25T00:41:07.601Z,3.47
2022-11-25T00:43:49.846Z,3.80
2022-11-25T00:46:19.722Z,3.70
2022-11-25T00:48:49.600Z,3.47
2022-11-25T00:51:19.444Z,3.43
2022-11-25T00:53:57.443Z,3.27
2022-11-25T00:56:30.469Z,3.23
2022-11-25T00:59:01.365Z,2.87
2022-11-25T01:01:31.272Z,3.03
2022-11-25T01:04:01.162Z,3.10
2022-11-25T01:06:31.017Z,3.63
2022-11-25T01:09:03.479Z,3.63
2022-11-25T01:11:33.309Z,2.63
2022-11-25T01:14:03.185Z,3.73
2022-11-25T01:16:34.077Z,3.50
2022-11-25T01:19:04.639Z,3.13
2022-11-25T01:21:36.131Z,3.60
2022-11-25T01:24:09.907Z,3.60
2022-11-25T01:26:39.733Z,3.53
2022-11-25T01:29:13.657Z,3.70
2022-11-25T01:31:43.588Z,3.80
2022-11-25T01:34:16.839Z,3.77
2022-11-25T01:36:47.372Z,3.30
2022-11-25T01:39:27.005Z,3.60
2022-11-25T01:42:01.851Z,3.47
2022-11-25T01:44:33.807Z,3.77
2022-11-25T01:47:09.727Z,3.30
2022-11-25T01:49:45.088Z,3.37
2022-11-25T01:52:21.291Z,3.23
2022-11-25T01:54:58.421Z,3.00
2022-11-25T01:57:34.439Z,2.73
2022-11-25T02:00:07.852Z,3.70
2022-11-25T02:02:48.054Z,3.13
2022-11-25T02:05:21.456Z,3.53
2022-11-25T02:07:54.141Z,3.33
2022-11-25T02:10:32.294Z,2.43
2022-11-25T02:13:03.199Z,3.17
2022-11-25T02:15:36.430Z,3.10
2022-11-25T02:18:07.846Z,2.90
2022-11-25T02:20:38.327Z,2.90
2022-11-25T02:23:15.566Z,3.43
2022-11-25T02:25:50.490Z,3.43
2022-11-25T02:28:24.173Z,2.40
2022-11-25T02:30:55.066Z,3.23
2022-11-25T02:33:27.327Z,3.33
2022-11-25T02:36:01.253Z,3.40
2022-11-25T02:38:40.680Z,3.30
2022-11-25T02:41:18.363Z,3.07
2022-11-25T02:43:51.176Z,4.17
2022-11-25T02:46:24.488Z,3.63
2022-11-25T02:49:11.187Z,3.70
2022-11-25T02:51:46.626Z,4.27
2022-11-25T02:54:17.613Z,3.70
2022-11-25T02:56:50.043Z,3.73
2022-11-25T02:59:19.853Z,2.97
2022-11-25T03:01:50.804Z,3.40
2022-11-25T03:04:20.751Z,3.47
2022-11-25T03:06:50.623Z,3.83
2022-11-25T03:09:20.691Z,2.80
2022-11-25T03:12:05.598Z,3.40
2022-11-25T03:14:35.803Z,4.00
2022-11-25T03:17:05.965Z,3.40
2022-11-25T03:19:35.915Z,3.23
2022-11-25T03:22:05.800Z,3.10
2022-11-25T03:24:36.204Z,4.23
2022-11-25T03:27:09.439Z,3.80
2022-11-25T03:29:39.355Z,3.40
2022-11-25T03:32:09.956Z,3.10
2022-11-25T03:34:40.879Z,3.90
2022-11-25T03:37:11.349Z,3.20
2022-11-25T03:39:41.822Z,3.30
2022-11-25T03:42:15.116Z,2.80
2022-11-25T03:44:45.060Z,3.20
2022-11-25T03:47:14.877Z,3.57
2022-11-25T03:49:44.735Z,2.90
2022-11-25T03:52:14.579Z,3.50
2022-11-25T03:54:45.293Z,3.30
2022-11-25T03:57:28.302Z,3.20
2022-11-25T03:59:58.241Z,3.97
2022-11-25T04:02:28.080Z,3.00
2022-11-25T04:04:58.205Z,3.17
2022-11-25T04:07:28.164Z,3.27
2022-11-25T04:09:59.686Z,3.77
2022-11-25T04:12:50.154Z,2.97
2022-11-25T04:15:24.015Z,3.10
2022-11-25T04:17:56.542Z,3.63
2022-11-25T04:20:26.770Z,3.47
2022-11-25T04:23:02.891Z,3.33
2022-11-25T04:25:32.773Z,2.97
2022-11-25T04:28:07.321Z,3.10
2022-11-25T04:30:37.388Z,3.00
2022-11-25T04:33:07.335Z,2.87
2022-11-25T04:35:38.209Z,2.63
2022-11-25T04:38:08.132Z,3.83
2022-11-25T04:40:39.468Z,3.27
2022-11-25T04:43:30.001Z,3.40
2022-11-25T04:46:13.868Z,2.77
2022-11-25T04:48:44.595Z,3.30
2022-11-25T04:51:14.571Z,2.87
2022-11-25T04:53:45.750Z,3.67
2022-11-25T04:56:20.152Z,3.50
2022-11-25T04:59:07.705Z,2.53
2022-11-25T05:01:40.687Z,2.70
2022-11-25T05:04:47.734Z,3.40
2022-11-25T05:07:19.822Z,2.90
2022-11-25T05:09:52.150Z,3.50
2022-11-25T05:12:34.944Z,3.60
2022-11-25T05:15:12.720Z,3.87
2022-11-25T05:17:44.849Z,2.90
2022-11-25T05:20:16.311Z,3.30
2022-11-25T05:22:46.467Z,4.03
2022-11-25T05:25:21.076Z,3.47
2022-11-25T05:28:23.249Z,3.97
2022-11-25T05:30:55.856Z,2.80
2022-11-25T05:33:26.135Z,3.50
2022-11-25T05:35:59.484Z,3.37
2022-11-25T05:38:35.781Z,4.17
2022-11-25T05:41:11.116Z,3.93
2022-11-25T05:43:43.874Z,3.73
2022-11-25T05:46:17.985Z,4.10
2022-11-25T05:48:56.243Z,3.10
2022-11-25T05:51:28.298Z,3.13
2022-11-25T05:54:02.778Z,3.13
2022-11-25T05:56:36.515Z,3.83
2022-11-25T05:59:25.712Z,3.43
2022-11-25T06:02:09.082Z,3.90
2022-11-25T06:04:40.278Z,3.73
2022-11-25T06:07:11.705Z,3.23
2022-11-25T06:09:44.309Z,3.70
2022-11-25T06:12:14.781Z,4.70
2022-11-25T06:14:53.785Z,4.00
2022-11-25T06:17:27.462Z,3.67
2022-11-25T06:20:12.897Z,4.03
2022-11-25T06:22:42.831Z,3.37
2022-11-25T06:25:12.724Z,4.33
2022-11-25T06:28:11.239Z,4.67
2022-11-25T06:30:34.205Z,3.70
2022-11-25T06:33:29.830Z,3.93
2022-11-25T06:36:06.309Z,4.63
2022-11-25T06:38:36.527Z,4.20
2022-11-25T06:41:08.347Z,3.90
2022-11-25T06:43:38.296Z,3.50
2022-11-25T06:46:11.873Z,4.07
2022-11-25T06:48:44.751Z,3.70
2022-11-25T06:51:17.506Z,4.37
2022-11-25T06:53:48.713Z,5.47
2022-11-25T06:56:20.948Z,4.43
2022-11-25T06:58:52.544Z,4.50
2022-11-25T07:01:24.103Z,3.93
2022-11-25T07:03:58.677Z,4.27
2022-11-25T07:06:30.109Z,4.03
2022-11-25T07:09:00.238Z,4.73
2022-11-25T07:11:32.779Z,4.40
2022-11-25T07:14:04.237Z,4.10
2022-11-25T07:16:34.949Z,3.77
2022-11-25T07:19:08.248Z,4.17
2022-11-25T07:21:39.123Z,4.43
2022-11-25T07:24:10.739Z,3.97
2022-11-25T07:26:44.614Z,4.87
2022-11-25T07:29:50.103Z,4.07
2022-11-25T07:32:10.747Z,5.20
2022-11-25T07:34:44.656Z,6.27
2022-11-25T07:37:15.495Z,6.70
2022-11-25T07:39:45.759Z,4.40
2022-11-25T07:42:15.629Z,4.10
2022-11-25T07:44:45.594Z,4.40
2022-11-25T07:47:48.171Z,4.60
2022-11-25T07:50:21.558Z,4.30
2022-11-25T07:52:51.434Z,4.07
2022-11-25T07:55:22.416Z,5.00
2022-11-25T07:57:53.330Z,3.70
2022-11-25T08:00:24.695Z,4.70
2022-11-25T08:02:58.346Z,3.93
2022-11-25T08:05:31.916Z,4.50
2022-11-25T08:08:01.875Z,4.80
2022-11-25T08:10:33.784Z,3.93
2022-11-25T08:13:04.973Z,4.67
2022-11-25T08:15:35.907Z,4.60
2022-11-25T08:18:05.904Z,4.47
2022-11-25T08:20:38.361Z,4.23
2022-11-25T08:23:08.298Z,4.87
2022-11-25T08:25:47.435Z,4.47
2022-11-25T08:28:21.188Z,4.87
2022-11-25T08:30:51.295Z,5.30
2022-11-25T08:33:21.207Z,5.00
2022-11-25T08:35:58.507Z,5.00
2022-11-25T08:38:29.718Z,4.67
2022-11-25T08:41:01.202Z,5.33
2022-11-25T08:43:32.518Z,4.87
2022-11-25T08:46:02.448Z,4.63
2022-11-25T08:48:33.514Z,5.40
2022-11-25T08:51:12.288Z,5.07
2022-11-25T08:53:43.053Z,5.43
2022-11-25T08:56:13.286Z,5.73
2022-11-25T08:58:44.243Z,6.07
2022-11-25T09:01:16.137Z,6.50
2022-11-25T09:03:50.464Z,5.83
2022-11-25T09:06:26.194Z,5.47
2022-11-25T09:08:58.505Z,6.43
2022-11-25T09:11:32.011Z,6.10
2022-11-25T09:14:01.952Z,5.83
2022-11-25T09:16:32.014Z,6.20
2022-11-25T09:19:02.997Z,5.00
2022-11-25T09:21:36.548Z,5.03
2022-11-25T09:24:06.822Z,6.57
2022-11-25T09:26:39.691Z,5.00
2022-11-25T09:29:11.617Z,6.87
2022-11-25T09:31:41.516Z,6.50
2022-11-25T09:34:11.439Z,5.83
2022-11-25T09:36:44.025Z,6.27
2022-11-25T09:39:14.272Z,5.90
2022-11-25T09:42:09.576Z,5.50
2022-11-25T09:45:03.420Z,5.40
2022-11-25T09:47:48.892Z,6.00
2022-11-25T09:50:29.906Z,5.73
2022-11-25T09:53:13.378Z,5.03
2022-11-25T09:55:47.798Z,6.30
2022-11-25T09:58:28.962Z,5.40
2022-11-25T10:00:59.082Z,6.03
2022-11-25T10:03:39.613Z,6.63
2022-11-25T10:06:19.075Z,6.80
2022-11-25T10:08:53.471Z,6.93
2022-11-25T10:11:33.779Z,6.70
2022-11-25T10:14:10.344Z,6.03
2022-11-25T10:16:51.926Z,6.23
2022-11-25T10:19:37.213Z,6.93
2022-11-25T10:22:20.738Z,8.50
2022-11-25T10:24:56.093Z,6.20
2022-11-25T10:27:30.139Z,6.10
2022-11-25T10:30:10.025Z,7.63
2022-11-25T10:32:46.469Z,6.90
2022-11-25T10:35:24.153Z,6.63
2022-11-25T10:37:57.820Z,6.90
2022-11-25T10:40:31.411Z,6.80
2022-11-25T10:43:03.992Z,7.27
2022-11-25T10:45:41.673Z,5.93
2022-11-25T10:48:25.505Z,5.80
2022-11-25T10:51:09.900Z,6.10
2022-11-25T10:53:41.101Z,7.00
2022-11-25T10:56:21.451Z,5.50
2022-11-25T10:58:51.400Z,5.10
2022-11-25T11:01:25.831Z,5.83
2022-11-25T11:04:05.210Z,5.97
2022-11-25T11:06:40.984Z,5.77
2022-11-25T11:09:36.780Z,5.93
2022-11-25T11:12:21.155Z,5.93
2022-11-25T11:14:51.358Z,5.83
2022-11-25T11:17:36.321Z,6.07
2022-11-25T11:20:21.443Z,7.00
2022-11-25T11:22:57.279Z,5.57
2022-11-25T11:25:38.925Z,5.60
2022-11-25T11:28:29.122Z,5.40
2022-11-25T11:31:03.270Z,5.50
2022-11-25T11:33:40.181Z,6.23
2022-11-25T11:36:25.888Z,4.77
2022-11-25T11:38:57.866Z,5.13
2022-11-25T11:41:41.177Z,5.10
2022-11-25T11:44:21.198Z,5.37
2022-11-25T11:47:03.494Z,4.73
2022-11-25T11:50:05.097Z,6.20
2022-11-25T11:52:47.285Z,5.87
2022-11-25T11:55:31.463Z,6.00
2022-11-25T11:58:13.448Z,5.67
2022-11-25T12:00:52.954Z,5.83
2022-11-25T12:03:26.821Z,5.20
2022-11-25T12:05:59.435Z,5.10
2022-11-25T12:08:37.748Z,4.80
2022-11-25T12:11:14.241Z,5.67
2022-11-25T12:13:57.871Z,5.20
2022-11-25T12:16:37.455Z,4.80
2022-11-25T12:19:17.108Z,5.17
2022-11-25T12:21:53.507Z,4.80
2022-11-25T12:24:29.877Z,6.10
2022-11-25T12:27:04.196Z,5.00
2022-11-25T12:29:41.784Z,5.40
2022-11-25T12:32:44.883Z,5.17
2022-11-25T12:35:23.616Z,5.03
2022-11-25T12:37:59.435Z,6.27
2022-11-25T12:40:38.392Z,6.30
2022-11-25T12:43:19.863Z,6.40
2022-11-25T12:46:04.315Z,8.57
2022-11-25T12:48:35.643Z,8.77
2022-11-25T12:51:17.507Z,9.53
2022-11-25T12:53:54.618Z,8.57
2022-11-25T12:56:32.271Z,7.97
2022-11-25T12:59:25.779Z,8.03
2022-11-25T13:02:17.579Z,9.77
2022-11-25T13:05:32.988Z,9.23
2022-11-25T13:08:13.013Z,9.60
2022-11-25T13:11:05.473Z,9.83
2022-11-25T13:13:51.009Z,9.30
2022-11-25T13:16:27.880Z,8.80
2022-11-25T13:19:00.880Z,9.87
2022-11-25T13:21:30.919Z,9.63
2022-11-25T13:24:02.040Z,9.50
2022-11-25T13:26:52.635Z,8.87
2022-11-25T13:30:02.073Z,9.60
2022-11-25T13:32:37.108Z,9.50
2022-11-25T13:35:38.251Z,10.20
2022-11-25T13:38:50.312Z,9.77
2022-11-25T13:41:46.930Z,9.40
2022-11-25T13:44:28.116Z,9.70
2022-11-25T13:46:59.433Z,9.50
2022-11-25T13:49:53.931Z,9.50
2022-11-25T13:52:44.942Z,10.03
2022-11-25T13:55:33.604Z,9.67
2022-11-25T13:58:27.080Z,9.67
2022-11-25T14:01:08.616Z,9.30
2022-11-25T14:03:55.037Z,9.30
2022-11-25T14:06:57.547Z,10.83
2022-11-25T14:09:52.057Z,10.20
2022-11-25T14:12:55.376Z,9.13
2022-11-25T14:15:47.314Z,9.20
2022-11-25T14:19:12.077Z,9.87
2022-11-25T14:21:45.699Z,10.30
2022-11-25T14:24:31.949Z,10.50
2022-11-25T14:27:03.754Z,9.47
2022-11-25T14:29:43.329Z,9.67
2022-11-25T14:32:21.427Z,9.30
2022-11-25T14:34:55.724Z,10.57
2022-11-25T14:37:32.660Z,10.53
2022-11-25T14:40:09.481Z,10.17
2022-11-25T14:42:43.966Z,10.63
2022-11-25T14:45:25.255Z,10.57
2022-11-25T14:47:58.866Z,10.20
2022-11-25T14:50:37.766Z,9.33
2022-11-25T14:53:10.413Z,9.40
2022-11-25T14:55:41.464Z,9.40
2022-11-25T14:58:15.395Z,10.13
2022-11-25T15:00:55.216Z,9.47
2022-11-25T15:03:27.975Z,9.90
2022-11-25T15:06:03.996Z,10.60
2022-11-25T15:08:42.087Z,10.50
2022-11-25T15:11:17.460Z,12.17
2022-11-25T15:13:49.486Z,12.97
2022-11-25T15:16:21.793Z,17.40
2022-11-25T15:18:56.834Z,15.73
2022-11-25T15:21:32.742Z,17.73
2022-11-25T15:24:08.040Z,19.13
2022-11-25T15:26:39.061Z,19.13
2022-11-25T15:29:15.911Z,22.73
2022-11-25T15:31:46.128Z,27.50
2022-11-25T15:34:21.275Z,25.20
2022-11-25T15:36:54.673Z,25.73
2022-11-25T15:39:30.656Z,14.50
2022-11-25T15:42:10.241Z,13.00
2022-11-25T15:44:47.719Z,12.67
2022-11-25T15:47:25.854Z,12.30
2022-11-25T15:50:03.420Z,12.80
2022-11-25T15:52:36.155Z,12.80
2022-11-25T15:55:19.874Z,13.50
2022-11-25T15:57:54.119Z,13.07
2022-11-25T16:00:26.385Z,13.40
2022-11-25T16:02:59.621Z,12.57
2022-11-25T16:05:38.413Z,13.67
2022-11-25T16:08:29.926Z,12.80
2022-11-25T16:11:02.454Z,13.03
2022-11-25T16:13:37.979Z,12.60
2022-11-25T16:16:18.907Z,12.27
2022-11-25T16:19:12.488Z,13.20
2022-11-25T16:21:54.871Z,12.57
2022-11-25T16:24:35.536Z,13.77
2022-11-25T16:27:08.379Z,12.73
2022-11-25T16:29:51.066Z,11.53
2022-11-25T16:32:23.187Z,12.93
2022-11-25T16:34:56.115Z,12.40
2022-11-25T16:37:29.658Z,11.77
2022-11-25T16:39:59.644Z,10.57
2022-11-25T16:42:31.612Z,11.00
2022-11-25T16:45:04.082Z,12.60
2022-11-25T16:47:37.841Z,13.87
2022-11-25T16:50:16.228Z,11.40
2022-11-25T16:52:52.690Z,16.10
2022-11-25T16:55:22.536Z,10.50
2022-11-25T16:57:54.405Z,10.97
2022-11-25T17:00:27.994Z,10.27
2022-11-25T17:02:58.861Z,8.90
2022-11-25T17:05:30.153Z,10.00
2022-11-25T17:08:02.668Z,12.20
2022-11-25T17:10:32.667Z,10.90
2022-11-25T17:13:04.334Z,11.50
2022-11-25T17:15:38.739Z,10.27
2022-11-25T17:18:10.623Z,11.43
2022-11-25T17:20:40.565Z,11.67
2022-11-25T17:23:18.432Z,12.10
2022-11-25T17:25:52.237Z,11.03
2022-11-25T17:28:23.511Z,10.03
2022-11-25T17:30:53.454Z,10.67
2022-11-25T17:33:28.891Z,10.47
2022-11-25T17:35:58.792Z,10.67
2022-11-25T17:38:31.704Z,10.67
2022-11-25T17:41:01.618Z,9.90
2022-11-25T17:43:34.999Z,10.37
2022-11-25T17:46:04.910Z,9.20
2022-11-25T17:48:36.354Z,9.83
2022-11-25T17:51:07.723Z,9.60
2022-11-25T17:53:40.742Z,10.20
2022-11-25T17:56:21.563Z,8.93
2022-11-25T17:58:54.466Z,7.57
2022-11-25T18:01:25.438Z,7.93
2022-11-25T18:03:57.371Z,8.70
2022-11-25T18:06:27.283Z,8.87
2022-11-25T18:08:59.798Z,8.10
2022-11-25T18:11:30.647Z,7.80
2022-11-25T18:14:00.598Z,8.57
2022-11-25T18:16:35.504Z,7.53
2022-11-25T18:19:07.521Z,7.50
2022-11-25T18:21:38.453Z,6.97
2022-11-25T18:24:13.025Z,6.90
2022-11-25T18:26:49.513Z,6.80
2022-11-25T18:29:26.183Z,5.87
2022-11-25T18:31:59.513Z,6.53
2022-11-25T18:34:31.590Z,10.10
2022-11-25T18:37:03.071Z,8.17
2022-11-25T18:39:35.608Z,7.73
2022-11-25T18:42:09.923Z,7.77
2022-11-25T18:44:43.666Z,7.00
2022-11-25T18:47:15.061Z,7.47
2022-11-25T18:49:44.988Z,7.00
2022-11-25T18:52:14.841Z,7.77
2022-11-25T18:54:48.116Z,6.20
2022-11-25T18:57:20.164Z,6.37
2022-11-25T19:00:00.232Z,7.40
2022-11-25T19:02:41.281Z,8.77
2022-11-25T19:05:21.318Z,7.83
2022-11-25T19:07:57.019Z,7.80
2022-11-25T19:10:33.510Z,7.60
2022-11-25T19:13:05.700Z,8.30
2022-11-25T19:15:37.579Z,7.23
2022-11-25T19:18:09.797Z,8.20
2022-11-25T19:20:41.729Z,7.53
2022-11-25T19:23:22.701Z,8.10
2022-11-25T19:25:58.151Z,9.03
2022-11-25T19:28:29.735Z,8.37
2022-11-25T19:31:04.497Z,8.43
2022-11-25T19:33:38.035Z,9.07
2022-11-25T19:36:18.122Z,10.33
2022-11-25T19:38:47.938Z,8.80
2022-11-25T19:41:20.743Z,8.73
2022-11-25T19:43:53.050Z,8.77
2022-11-25T19:46:33.143Z,9.40
2022-11-25T19:49:08.437Z,8.43
2022-11-25T19:51:38.385Z,8.60
2022-11-25T19:54:11.913Z,9.40
2022-11-25T19:56:44.813Z,10.27
2022-11-25T19:59:14.990Z,9.50
2022-11-25T20:01:47.722Z,9.47
2022-11-25T20:04:22.567Z,8.17
2022-11-25T20:06:55.969Z,8.73
2022-11-25T20:09:26.860Z,9.43
2022-11-25T20:12:08.029Z,8.40
2022-11-25T20:14:40.479Z,9.23
2022-11-25T20:17:12.163Z,8.80
2022-11-25T20:19:42.190Z,10.10
2022-11-25T20:22:15.891Z,8.43
2022-11-25T20:24:47.409Z,9.60
2022-11-25T20:27:19.993Z,10.17
2022-11-25T20:29:49.918Z,9.43
2022-11-25T20:32:24.013Z,9.70
2022-11-25T20:34:53.880Z,10.47
2022-11-25T20:37:26.493Z,11.20
2022-11-25T20:39:58.955Z,10.47
2022-11-25T20:42:31.532Z,10.97
2022-11-25T20:45:01.636Z,11.70
2022-11-25T20:47:32.267Z,11.70
2022-11-25T20:50:02.283Z,11.07
2022-11-25T20:52:40.053Z,11.20
2022-11-25T20:55:20.573Z,10.60
2022-11-25T20:57:54.257Z,11.50
2022-11-25T21:00:31.881Z,11.30
2022-11-25T21:03:01.980Z,11.70
2022-11-25T21:05:31.867Z,11.70
2022-11-25T21:08:01.764Z,10.30
2022-11-25T21:10:34.910Z,10.40
2022-11-25T21:13:12.356Z,11.80
2022-11-25T21:15:49.426Z,12.17
2022-11-25T21:18:20.664Z,12.83
2022-11-25T21:20:52.465Z,11.93
2022-11-25T21:23:25.578Z,12.47
2022-11-25T21:25:55.792Z,13.17
2022-11-25T21:28:31.467Z,13.13
2022-11-25T21:31:11.035Z,12.40
2022-11-25T21:33:41.177Z,12.20
2022-11-25T21:36:18.022Z,12.80
2022-11-25T21:38:49.859Z,13.37
2022-11-25T21:41:21.387Z,13.10
2022-11-25T21:43:54.870Z,14.77
2022-11-25T21:46:26.822Z,12.67
2022-11-25T21:48:57.746Z,13.50
2022-11-25T21:51:28.569Z,13.60
2022-11-25T21:53:58.724Z,15.00
2022-11-25T21:56:30.918Z,13.10
2022-11-25T21:59:05.574Z,12.63
2022-11-25T22:01:38.976Z,13.23
2022-11-25T22:04:09.862Z,13.43
2022-11-25T22:06:41.690Z,12.90
2022-11-25T22:09:11.659Z,12.03
2022-11-25T22:11:44.081Z,12.70
2022-11-25T22:14:27.831Z,12.23
2022-11-25T22:16:58.228Z,14.43
2022-11-25T22:19:30.585Z,13.80
2022-11-25T22:22:00.839Z,13.70
2022-11-25T22:24:35.383Z,12.97
2022-11-25T22:27:07.184Z,14.10
2022-11-25T22:29:39.645Z,13.10
2022-11-25T22:32:12.732Z,12.97
2022-11-25T22:34:42.734Z,12.93
2022-11-25T22:37:20.723Z,12.90
2022-11-25T22:39:50.948Z,12.80
2022-11-25T22:42:27.976Z,13.27
2022-11-25T22:45:01.952Z,13.17
2022-11-25T22:47:36.153Z,12.67
2022-11-25T22:50:09.574Z,12.10
2022-11-25T22:52:39.363Z,13.30
2022-11-25T22:55:19.866Z,13.60
2022-11-25T22:57:50.670Z,13.43
2022-11-25T23:00:25.418Z,12.03
2022-11-25T23:02:57.505Z,11.80
2022-11-25T23:05:33.034Z,12.97
2022-11-25T23:08:03.836Z,12.57
2022-11-25T23:10:34.767Z,12.70
2022-11-25T23:13:04.510Z,13.30
2022-11-25T23:15:37.780Z,12.70
2022-11-25T23:18:16.654Z,12.60
2022-11-25T23:20:48.582Z,12.10
2022-11-25T23:23:21.032Z,12.23
2022-11-25T23:25:51.708Z,13.57
2022-11-25T23:28:21.561Z,12.23
2022-11-25T23:30:56.642Z,13.50
2022-11-25T23:33:31.830Z,12.37
2022-11-25T23:36:07.574Z,12.10
2022-11-25T23:38:44.437Z,12.90
2022-11-25T23:41:19.014Z,12.60
2022-11-25T23:43:48.839Z,12.80
2022-11-25T23:46:24.276Z,12.73
2022-11-25T23:48:57.708Z,13.80
2022-11-25T23:51:29.976Z,12.70
2022-11-25T23:54:01.437Z,13.90
2022-11-25T23:56:31.658Z,12.27
2022-11-25T23:59:01.407Z,12.40
